الصفحة الرئيسية
METAR-TAF:

METAR-TAF

مطار :

فيساخاباتنام, الهند

دائرة عرض: 17-43-16N, خط طول: 83-13-28E, ارتفاع: 6 متر

مراقبة الطقس الحالي

تاريخ ووقت الإصدار 2ساعات و 12 دقيقة قبل الساعة 20:00UTC
ريح 2 عقدةمن اتجاهات متغيرة
درجة الحرارة 26°درجة مئوية
الرطوبة 94%
ضغط 1000 hPa
الرؤية: 4000 متر
غيوم قليلة على ارتفاع 1800 قدم
غشاء

METAR: VOVZ 022000Z VRB02KT 4000 BR FEW018 26/25 Q1000 NOSIG

زمن: 03:42 (22:12 UTC)

توقعات

تاريخ ووقت الإصدار 2ساعات و 12 دقيقة قبل الساعة 20:00UTC
التوقعات صالحة من02 الساعة 21 UTC إلى 03 الساعة 06 UTC
ريح 2 عقدةمن اتجاهات متغيرة
الرؤية: 4000 متر
غيوم قليلة على ارتفاع 1800 قدم
غشاء
مؤقت
من 03 الساعة 00 UTC إلى 03 الساعة 03 UTC
الرؤية: 3000 متر
رذاذ, غشاء
أصبح
من 03 الساعة 04 UTC إلى 03 الساعة 06 UTC
ريح 9 عقدة من الجنوب/الجنوب الغربي
الرؤية: 5000 متر
غيوم قليلة على ارتفاع 1600 قدم
غيوم متفرقة على ارتفاع 9000 قدم
العجاج

TAF: VOVZ 022000Z 0221/0306 VRB02KT 4000 BR FEW018 TEMPO 0300/0303 3000 DZ BR BECMG 0304/0306 21009KT 5000 HZ FEW016 SCT090

أرصاد الطقس والتوقعات من أكثر من 4000 مطار (تقارير الطقس للمطار METAR والتنبؤ بالطقس بالمطارTAF).

المحطات المتاحة هي النقط الصفراء والحمراء على الخريطة.

حرك المؤشر فوق النقطة لمعرفة اسم المحطة.

ثم انقر لمعرفة أرصاد وتوقعات الطقس.

لتغيير الخارطة: اضغط على الأزرار الخضراء مع رمز الصليب الأسود للتكبير. على الزر الأخضر مع شرطة للتصغير، أو على الأسهم الخضراء للخرائط المجاورة.


METAR-TAF: